Time;durP1;ratioP1;P1;durP2;ratioP2;P2;SDS_P1;SDS_P2;PMS_P1;PMS_P2;Temp;Humidity;BMP_temperature;BMP_pressure;BME280_temperature;BME280_humidity;BME280_pressure;Samples;Min_cycle;Max_cycle;Signal;HPM_P1;HPM_P2
2024/01/09 00:01:49;;;;;;;0.57;0.57;;;;;;;4.66;50.91;103702.22;5113242;28;20023;-74
2024/01/09 00:04:14;;;;;;;0.50;0.50;;;;;;;4.81;49.69;103689.56;5112947;28;20040;-74
2024/01/09 00:06:40;;;;;;;0.50;0.50;;;;;;;4.98;48.49;103697.09;5113202;28;20035;-75
2024/01/09 00:09:05;;;;;;;0.50;0.50;;;;;;;4.82;49.29;103705.41;5112638;28;20073;-73
2024/01/09 00:11:30;;;;;;;0.50;0.50;;;;;;;4.39;49.83;103704.31;5111931;28;20035;-74
2024/01/09 00:13:56;;;;;;;0.40;0.40;;;;;;;4.65;50.50;103697.00;5112918;28;20206;-73
2024/01/09 00:16:22;;;;;;;0.60;0.60;;;;;;;4.80;48.91;103694.03;5112942;28;20151;-73
2024/01/09 00:18:53;;;;;;;0.60;0.60;;;;;;;4.78;48.81;103695.97;5112742;28;20035;-73
2024/01/09 00:21:18;;;;;;;;;;;;;;;5.36;48.66;103695.75;5113711;28;20547;-74
2024/01/09 00:23:43;;;;;;;0.50;0.50;;;;;;;4.80;49.23;103691.34;5112900;28;19919;-75
2024/01/09 00:26:09;;;;;;;0.50;0.50;;;;;;;5.10;48.62;103690.81;5112195;28;20069;-75
2024/01/09 00:28:34;;;;;;;0.50;0.50;;;;;;;4.84;48.97;103690.16;5113328;28;20028;-74
2024/01/09 00:30:59;;;;;;;0.67;0.67;;;;;;;4.48;50.47;103691.16;5112544;28;20038;-74
2024/01/09 00:33:26;;;;;;;0.50;0.50;;;;;;;5.07;49.04;103689.22;5113056;28;20039;-74
2024/01/09 00:35:51;;;;;;;0.63;0.63;;;;;;;4.68;48.80;103684.31;5112863;28;20036;-74
2024/01/09 00:38:17;;;;;;;0.50;0.50;;;;;;;4.77;49.80;103685.44;5094477;28;20404;-73
2024/01/09 00:40:42;;;;;;;0.50;0.50;;;;;;;5.06;48.85;103686.69;5113203;28;20584;-74
2024/01/09 00:43:07;;;;;;;0.67;0.67;;;;;;;5.13;48.38;103685.25;5105178;28;20450;-75
2024/01/09 00:45:33;;;;;;;0.50;0.50;;;;;;;4.96;48.86;103685.69;5112789;28;20353;-72
2024/01/09 00:47:58;;;;;;;0.50;0.50;;;;;;;4.94;48.48;103688.47;5112600;28;20176;-75
2024/01/09 00:50:23;;;;;;;0.50;0.50;;;;;;;4.71;48.94;103681.41;5112455;28;20112;-74
2024/01/09 00:52:49;;;;;;;0.70;0.70;;;;;;;4.86;48.96;103671.38;5113327;28;20043;-74
2024/01/09 00:55:16;;;;;;;0.50;0.50;;;;;;;4.65;49.18;103670.38;5112439;28;20088;-73
2024/01/09 00:57:41;;;;;;;0.60;0.60;;;;;;;4.61;49.75;103672.44;5111947;28;20036;-73
2024/01/09 01:00:08;;;;;;;0.50;0.50;;;;;;;4.93;48.84;103672.63;5111641;28;20034;-74
2024/01/09 01:02:33;;;;;;;0.60;0.60;;;;;;;4.71;48.56;103670.78;5111597;28;20040;-73
2024/01/09 01:04:58;;;;;;;0.50;0.50;;;;;;;5.01;48.50;103672.88;5093913;28;20051;-75
2024/01/09 01:07:24;;;;;;;0.60;0.60;;;;;;;4.96;47.77;103669.72;5111873;28;20059;-72
2024/01/09 01:09:49;;;;;;;0.50;0.50;;;;;;;4.70;48.25;103671.72;5112175;28;20134;-73
2024/01/09 01:12:14;;;;;;;0.60;0.60;;;;;;;4.52;49.67;103665.13;5112271;28;20193;-73
2024/01/09 01:14:40;;;;;;;0.60;0.60;;;;;;;4.40;49.88;103672.22;5111721;28;20035;-75
2024/01/09 01:17:05;;;;;;;0.50;0.50;;;;;;;4.58;49.09;103661.19;5112425;28;20474;-72
2024/01/09 01:19:30;;;;;;;0.50;0.50;;;;;;;4.54;49.52;103665.03;5111805;28;20163;-73
2024/01/09 01:21:56;;;;;;;0.60;0.60;;;;;;;4.52;49.34;103669.63;5111763;28;20039;-76
2024/01/09 01:24:21;;;;;;;0.60;0.60;;;;;;;4.65;49.39;103667.72;5111839;28;20142;-76
2024/01/09 01:26:46;;;;;;;0.50;0.50;;;;;;;4.75;47.93;103671.38;5111757;28;20077;-75
2024/01/09 01:29:11;;;;;;;0.40;0.40;;;;;;;4.68;48.83;103678.16;5111467;28;20055;-71
2024/01/09 01:31:37;;;;;;;0.60;0.60;;;;;;;4.65;48.16;103678.38;5112576;28;20037;-74
2024/01/09 01:34:03;;;;;;;0.53;0.53;;;;;;;4.86;48.10;103674.06;5111283;28;20116;-74
2024/01/09 01:36:29;;;;;;;0.60;0.60;;;;;;;4.54;48.93;103671.19;5111137;28;20039;-74
2024/01/09 01:38:54;;;;;;;0.50;0.50;;;;;;;4.30;49.29;103665.06;5111256;28;20038;-74
2024/01/09 01:41:19;;;;;;;0.60;0.60;;;;;;;4.27;49.32;103670.63;5111357;28;20020;-74
2024/01/09 01:43:45;;;;;;;0.57;0.57;;;;;;;4.11;48.82;103665.59;5091499;28;20111;-72
2024/01/09 01:46:11;;;;;;;0.67;0.67;;;;;;;4.20;48.40;103659.59;5089826;28;20044;-74
2024/01/09 01:48:36;;;;;;;0.60;0.60;;;;;;;4.23;49.40;103659.34;5091092;28;20036;-74
2024/01/09 01:51:02;;;;;;;0.67;0.67;;;;;;;4.28;49.40;103673.19;5090663;28;20050;-74
2024/01/09 01:53:31;;;;;;;0.60;0.60;;;;;;;4.04;49.48;103677.66;5091018;28;20326;-73
2024/01/09 01:55:56;;;;;;;0.60;0.60;;;;;;;4.33;49.10;103665.69;5091804;28;20426;-75
2024/01/09 01:58:24;;;;;;;0.50;0.50;;;;;;;3.99;50.87;103677.13;5072288;28;20040;-74
2024/01/09 02:00:50;;;;;;;0.50;0.50;;;;;;;4.12;50.21;103672.63;5090994;28;20520;-74
2024/01/09 02:03:16;;;;;;;0.80;0.80;;;;;;;4.35;49.01;103671.75;5111361;28;20031;-74
2024/01/09 02:05:41;;;;;;;0.60;0.60;;;;;;;3.74;49.23;103674.59;5111271;28;20464;-73
2024/01/09 02:08:07;;;;;;;0.50;0.50;;;;;;;4.20;49.41;103674.72;5111176;28;20104;-74
2024/01/09 02:10:33;;;;;;;0.50;0.50;;;;;;;4.31;49.00;103672.94;5112353;28;20032;-74
2024/01/09 02:12:58;;;;;;;0.63;0.63;;;;;;;4.50;48.30;103672.41;5093469;28;20590;-74
2024/01/09 02:15:24;;;;;;;0.60;0.60;;;;;;;4.47;48.26;103668.16;5112353;28;20431;-73
2024/01/09 02:17:49;;;;;;;0.60;0.60;;;;;;;4.43;47.37;103672.03;5111566;28;20085;-73
2024/01/09 02:20:15;;;;;;;0.50;0.50;;;;;;;3.92;49.49;103670.59;5110717;28;20026;-74
2024/01/09 02:22:41;;;;;;;0.70;0.70;;;;;;;4.10;49.31;103668.38;5093317;28;20036;-74
2024/01/09 02:25:07;;;;;;;0.60;0.60;;;;;;;4.11;49.06;103665.59;5093389;28;20043;-74
2024/01/09 02:28:00;;;;;;;0.60;0.60;;;;;;;4.06;49.63;103672.22;5111241;28;20047;-74
2024/01/09 02:30:26;;;;;;;0.50;0.50;;;;;;;4.14;48.73;103665.38;5111135;28;20066;-74
2024/01/09 02:32:51;;;;;;;0.50;0.50;;;;;;;3.88;49.34;103676.22;5111244;28;20031;-75
2024/01/09 02:35:17;;;;;;;0.50;0.50;;;;;;;4.10;49.17;103666.56;5092246;28;20490;-72
2024/01/09 02:37:42;;;;;;;0.57;0.57;;;;;;;3.62;50.51;103671.97;5111573;28;20470;-75
2024/01/09 02:40:08;;;;;;;0.50;0.50;;;;;;;3.53;49.68;103679.66;5111033;28;20502;-75
2024/01/09 02:42:34;;;;;;;0.60;0.60;;;;;;;3.99;49.76;103669.16;5111678;28;20038;-74
2024/01/09 02:44:59;;;;;;;0.50;0.50;;;;;;;3.94;49.48;103671.31;5092951;28;20023;-75
2024/01/09 02:47:26;;;;;;;0.60;0.60;;;;;;;4.03;49.16;103670.63;5111261;28;20035;-74
2024/01/09 02:49:52;;;;;;;0.50;0.50;;;;;;;4.02;49.13;103668.09;5114397;28;20028;-75
2024/01/09 02:52:18;;;;;;;0.60;0.60;;;;;;;3.84;49.86;103661.47;5115078;28;20130;-73
2024/01/09 02:54:44;;;;;;;0.50;0.50;;;;;;;3.90;49.72;103667.19;5115008;28;20486;-74
2024/01/09 02:57:11;;;;;;;0.60;0.60;;;;;;;3.69;50.46;103663.44;5115029;28;20032;-74
2024/01/09 02:59:37;;;;;;;0.60;0.60;;;;;;;3.39;50.24;103658.53;5115365;28;20020;-74
2024/01/09 03:02:02;;;;;;;0.60;0.60;;;;;;;3.01;51.59;103664.81;5115921;28;20028;-74
2024/01/09 03:04:28;;;;;;;0.60;0.60;;;;;;;3.54;50.17;103665.38;5115056;28;20119;-73
2024/01/09 03:06:53;;;;;;;0.60;0.60;;;;;;;4.07;49.72;103669.44;5096151;28;20046;-73
2024/01/09 03:09:19;;;;;;;0.80;0.80;;;;;;;3.78;49.32;103664.56;5114895;28;20043;-75
2024/01/09 03:11:44;;;;;;;0.60;0.60;;;;;;;3.92;49.60;103669.72;5114701;28;20032;-74
2024/01/09 03:14:10;;;;;;;0.60;0.60;;;;;;;3.59;49.68;103670.38;5114555;28;20462;-73
2024/01/09 03:16:35;;;;;;;0.60;0.60;;;;;;;3.47;51.01;103677.44;5115208;28;20019;-75
2024/01/09 03:19:00;;;;;;;0.63;0.63;;;;;;;3.69;49.89;103667.91;5114002;28;20172;-74
2024/01/09 03:21:26;;;;;;;0.53;0.53;;;;;;;3.49;50.09;103666.69;5113989;28;20039;-75
2024/01/09 03:23:51;;;;;;;0.73;0.73;;;;;;;3.46;49.93;103669.53;5114176;28;20635;-74
2024/01/09 03:26:17;;;;;;;0.50;0.50;;;;;;;3.42;50.08;103671.56;5113574;28;20492;-75
2024/01/09 03:28:42;;;;;;;0.60;0.60;;;;;;;3.05;51.63;103666.31;5114494;28;20032;-74
2024/01/09 03:31:07;;;;;;;0.70;0.70;;;;;;;3.30;51.06;103667.13;5113250;28;20181;-73
2024/01/09 03:33:33;;;;;;;0.60;0.60;;;;;;;3.74;49.32;103663.09;5114101;28;20039;-74
2024/01/09 03:36:04;;;;;;;0.63;0.63;;;;;;;3.22;50.54;103663.34;5098288;28;20043;-74
2024/01/09 03:38:30;;;;;;;0.60;0.60;;;;;;;3.46;49.03;103656.25;5093062;28;20572;-73
2024/01/09 03:40:55;;;;;;;0.60;0.60;;;;;;;3.38;49.44;103651.50;5093781;28;20102;-74
2024/01/09 03:43:21;;;;;;;0.60;0.60;;;;;;;3.00;50.71;103650.72;5109623;28;20039;-75
2024/01/09 03:45:46;;;;;;;0.67;0.67;;;;;;;3.76;48.47;103653.19;5091693;28;20472;-75
2024/01/09 03:48:11;;;;;;;0.60;0.60;;;;;;;3.61;49.33;103655.16;5092772;28;20105;-75
2024/01/09 03:50:37;;;;;;;0.50;0.50;;;;;;;3.20;49.93;103658.13;5092255;28;20075;-74
2024/01/09 03:53:02;;;;;;;0.60;0.60;;;;;;;3.48;48.40;103651.69;5092305;28;20043;-73
2024/01/09 03:55:28;;;;;;;0.60;0.60;;;;;;;3.42;48.22;103649.50;5092901;28;20048;-74
2024/01/09 03:57:53;;;;;;;0.50;0.50;;;;;;;3.58;48.49;103652.72;5093079;28;20032;-75
2024/01/09 04:00:18;;;;;;;0.50;0.50;;;;;;;3.55;47.83;103652.94;5092989;28;20375;-74
2024/01/09 04:02:44;;;;;;;0.50;0.50;;;;;;;3.45;48.06;103647.44;5095103;28;20375;-73
2024/01/09 04:05:09;;;;;;;0.60;0.60;;;;;;;3.71;47.60;103644.72;5113262;28;20028;-73
2024/01/09 04:07:35;;;;;;;0.60;0.60;;;;;;;3.71;47.69;103650.88;5113814;28;20030;-74
2024/01/09 04:10:00;;;;;;;0.70;0.70;;;;;;;3.30;48.86;103651.19;5113190;28;20073;-76
2024/01/09 04:12:26;;;;;;;0.60;0.60;;;;;;;3.34;48.45;103641.22;5095120;28;20092;-74
2024/01/09 04:14:51;;;;;;;0.70;0.70;;;;;;;3.21;49.26;103651.00;5113261;28;20102;-76
2024/01/09 04:17:16;;;;;;;0.70;0.70;;;;;;;3.46;48.40;103650.94;5114093;28;20034;-74
2024/01/09 04:19:42;;;;;;;0.50;0.50;;;;;;;2.74;49.71;103651.66;5096043;28;20035;-74
2024/01/09 04:22:07;;;;;;;0.50;0.50;;;;;;;3.02;48.82;103643.50;5094711;28;20397;-73
2024/01/09 04:24:34;;;;;;;0.60;0.60;;;;;;;2.82;48.86;103649.34;5113695;28;20453;-74
2024/01/09 04:27:02;;;;;;;0.63;0.63;;;;;;;3.27;48.75;103647.91;5112458;28;20403;-75
2024/01/09 04:29:27;;;;;;;0.60;0.60;;;;;;;3.05;48.90;103647.72;5112455;28;20039;-73
2024/01/09 04:31:53;;;;;;;0.60;0.60;;;;;;;3.58;47.52;103646.56;5094896;28;20043;-73
2024/01/09 04:34:18;;;;;;;0.60;0.60;;;;;;;3.36;47.42;103644.63;5112591;28;20043;-73
2024/01/09 04:36:44;;;;;;;0.60;0.60;;;;;;;3.00;48.37;103644.53;5112230;28;20560;-74
2024/01/09 04:39:09;;;;;;;0.87;0.87;;;;;;;3.51;47.63;103647.00;5105881;28;20082;-72
2024/01/09 04:41:35;;;;;;;0.67;0.67;;;;;;;3.15;47.19;103651.44;5092545;28;20032;-73
2024/01/09 04:44:00;;;;;;;0.70;0.70;;;;;;;3.48;47.39;103655.19;5092283;28;20028;-76
2024/01/09 04:46:25;;;;;;;0.67;0.67;;;;;;;3.14;47.22;103647.09;5092093;28;20415;-73
2024/01/09 04:48:51;;;;;;;0.70;0.70;;;;;;;3.13;48.36;103654.19;5092187;28;20040;-73
2024/01/09 04:51:16;;;;;;;0.60;0.60;;;;;;;3.24;47.74;103653.44;5091909;28;20097;-73
2024/01/09 04:53:41;;;;;;;0.60;0.60;;;;;;;2.47;49.46;103657.06;5091565;28;20028;-73
2024/01/09 04:56:08;;;;;;;0.67;0.67;;;;;;;3.00;48.76;103655.16;5092221;28;20040;-72
2024/01/09 04:58:33;;;;;;;0.60;0.60;;;;;;;3.41;46.47;103658.41;5092594;28;20395;-74
2024/01/09 05:00:59;;;;;;;0.63;0.63;;;;;;;3.20;47.16;103665.25;5073328;28;20035;-73
2024/01/09 05:03:24;;;;;;;0.77;0.77;;;;;;;3.17;47.44;103665.44;5110771;28;20038;-73
2024/01/09 05:05:49;;;;;;;0.70;0.70;;;;;;;2.85;49.22;103672.19;5110625;28;20106;-73
2024/01/09 05:08:15;;;;;;;0.50;0.50;;;;;;;3.32;47.17;103665.22;5110007;28;20515;-73
2024/01/09 05:10:40;;;;;;;0.57;0.57;;;;;;;3.19;47.57;103660.88;5091885;28;20027;-73
2024/01/09 05:13:06;;;;;;;0.60;0.60;;;;;;;3.23;47.19;103663.22;5091253;28;20411;-76
2024/01/09 05:15:31;;;;;;;0.53;0.53;;;;;;;3.32;46.62;103653.75;5110739;28;20202;-74
2024/01/09 05:17:57;;;;;;;0.60;0.60;;;;;;;3.08;47.45;103664.31;5110012;28;20036;-75
2024/01/09 05:20:22;;;;;;;0.50;0.50;;;;;;;3.04;47.20;103661.97;5111205;28;20026;-74
2024/01/09 05:22:47;;;;;;;0.60;0.60;;;;;;;2.82;48.25;103667.91;5111536;28;20103;-73
2024/01/09 05:25:13;;;;;;;0.50;0.50;;;;;;;3.09;47.37;103662.47;5110829;28;20488;-75
2024/01/09 05:27:38;;;;;;;0.63;0.63;;;;;;;3.29;46.74;103668.09;5110483;28;20048;-74
2024/01/09 05:30:07;;;;;;;0.60;0.60;;;;;;;3.04;47.84;103676.09;5092395;28;20099;-73
2024/01/09 05:32:32;;;;;;;0.70;0.70;;;;;;;3.05;47.40;103675.13;5110478;28;20119;-75
2024/01/09 05:34:59;;;;;;;0.60;0.60;;;;;;;3.21;47.61;103672.25;5091499;28;20028;-74
2024/01/09 05:37:24;;;;;;;0.87;0.87;;;;;;;2.77;46.98;103666.53;5089799;28;20449;-74
2024/01/09 05:39:49;;;;;;;0.60;0.60;;;;;;;3.28;47.29;103668.22;5090003;28;20172;-74
2024/01/09 05:42:15;;;;;;;0.50;0.50;;;;;;;2.61;48.25;103670.22;5090192;28;20127;-74
2024/01/09 05:44:40;;;;;;;0.50;0.50;;;;;;;2.59;48.38;103674.78;5090324;28;20168;-73
2024/01/09 05:47:06;;;;;;;0.80;0.80;;;;;;;3.02;47.43;103675.38;5090185;28;20107;-71
2024/01/09 05:49:31;;;;;;;0.60;0.60;;;;;;;2.84;48.13;103676.63;5090579;28;20042;-75
2024/01/09 05:51:56;;;;;;;0.70;0.70;;;;;;;3.04;46.93;103675.25;5089723;28;20056;-73
2024/01/09 05:54:22;;;;;;;0.60;0.60;;;;;;;2.87;46.35;103673.75;5107606;28;20123;-72
2024/01/09 05:56:48;;;;;;;0.63;0.63;;;;;;;2.81;46.96;103679.47;5109939;28;20035;-72
2024/01/09 05:59:14;;;;;;;0.60;0.60;;;;;;;3.03;47.26;103676.19;5102133;28;20507;-73
2024/01/09 06:01:39;;;;;;;0.70;0.70;;;;;;;2.83;46.58;103672.25;5108114;28;20015;-73
2024/01/09 06:04:04;;;;;;;0.80;0.80;;;;;;;2.45;47.55;103682.00;5110366;28;20122;-73
2024/01/09 06:06:30;;;;;;;0.50;0.50;;;;;;;2.75;46.65;103681.72;5110084;28;20411;-72
2024/01/09 06:08:56;;;;;;;0.73;0.73;;;;;;;2.70;46.43;103684.69;5091394;28;20051;-73
2024/01/09 06:11:21;;;;;;;0.80;0.80;;;;;;;2.83;47.06;103674.91;5083447;28;20112;-72
2024/01/09 06:13:47;;;;;;;0.70;0.70;;;;;;;2.91;47.51;103674.41;5090311;28;20040;-75
2024/01/09 06:16:12;;;;;;;0.60;0.60;;;;;;;2.97;46.45;103687.28;5089450;28;20032;-73
2024/01/09 06:18:37;;;;;;;0.60;0.60;;;;;;;2.90;46.45;103683.31;5089705;28;20032;-73
2024/01/09 06:21:03;;;;;;;0.77;0.77;;;;;;;2.74;45.91;103685.31;5101478;28;20092;-73
2024/01/09 06:23:28;;;;;;;0.60;0.60;;;;;;;2.69;46.13;103681.16;5110617;28;20035;-73
2024/01/09 06:25:54;;;;;;;0.70;0.70;;;;;;;2.77;46.22;103695.75;5110209;28;21654;-72
2024/01/09 06:28:20;;;;;;;0.50;0.50;;;;;;;3.04;45.44;103696.50;5109123;28;20123;-73
2024/01/09 06:30:46;;;;;;;0.67;0.67;;;;;;;2.72;46.06;103706.66;5113273;28;20123;-75
2024/01/09 06:33:11;;;;;;;0.63;0.63;;;;;;;2.91;45.91;103699.13;5094708;28;20043;-73
2024/01/09 06:35:37;;;;;;;0.60;0.60;;;;;;;3.07;44.89;103701.59;5114392;28;20116;-73
2024/01/09 06:38:02;;;;;;;0.80;0.80;;;;;;;2.51;46.29;103708.13;5114764;28;20131;-73
2024/01/09 06:40:28;;;;;;;0.60;0.60;;;;;;;2.78;45.21;103716.88;5114447;28;20408;-73
2024/01/09 06:42:53;;;;;;;0.73;0.73;;;;;;;2.93;44.44;103710.50;5114461;28;20041;-73
2024/01/09 06:45:18;;;;;;;0.70;0.70;;;;;;;2.79;43.84;103699.97;5114478;28;20558;-73
2024/01/09 06:47:44;;;;;;;0.70;0.70;;;;;;;2.33;45.13;103714.66;5114479;28;20047;-73
2024/01/09 06:50:10;;;;;;;0.80;0.80;;;;;;;2.55;45.76;103718.44;5114377;28;20076;-72
2024/01/09 06:52:35;;;;;;;0.60;0.60;;;;;;;2.42;44.91;103714.88;5114750;28;20020;-73
2024/01/09 06:55:01;;;;;;;0.63;0.63;;;;;;;2.56;44.79;103712.16;5114107;28;20032;-72
2024/01/09 06:57:27;;;;;;;0.70;0.70;;;;;;;2.87;44.13;103716.22;5113581;28;20341;-72
2024/01/09 06:59:52;;;;;;;0.53;0.53;;;;;;;2.15;44.66;103715.84;5113615;28;20038;-73
2024/01/09 07:02:17;;;;;;;0.60;0.60;;;;;;;2.96;42.86;103714.75;5113137;28;20106;-71
2024/01/09 07:04:43;;;;;;;0.60;0.60;;;;;;;2.98;42.47;103712.84;5113278;28;20019;-74
2024/01/09 07:07:09;;;;;;;0.70;0.70;;;;;;;2.95;42.84;103711.25;5112850;28;20063;-72
2024/01/09 07:09:34;;;;;;;0.77;0.77;;;;;;;2.70;42.78;103721.84;5113277;28;20472;-72
2024/01/09 07:11:59;;;;;;;0.83;0.83;;;;;;;2.75;43.89;103716.25;5112717;28;20032;-72
2024/01/09 07:14:25;;;;;;;0.83;0.83;;;;;;;2.89;43.77;103716.97;5118753;27;21170;-71
2024/01/09 07:16:51;;;;;;;0.60;0.60;;;;;;;2.57;43.85;103721.84;5110019;27;20107;-74
2024/01/09 07:19:17;;;;;;;0.80;0.80;;;;;;;2.54;43.43;103723.81;5095536;28;20667;-74
2024/01/09 07:21:42;;;;;;;0.77;0.77;;;;;;;2.72;43.10;103724.41;5092896;28;20032;-72
2024/01/09 07:24:08;;;;;;;0.67;0.67;;;;;;;2.44;43.80;103734.22;5091025;28;20169;-73
2024/01/09 07:26:39;;;;;;;0.60;0.60;;;;;;;2.37;42.95;103730.28;5092929;28;20036;-72
2024/01/09 07:29:05;;;;;;;0.77;0.77;;;;;;;2.37;43.04;103734.72;5092964;28;20035;-67
2024/01/09 07:31:30;;;;;;;0.87;0.87;;;;;;;2.66;42.92;103737.13;5091960;28;20032;-68
2024/01/09 07:33:55;;;;;;;0.60;0.60;;;;;;;2.52;43.01;103725.72;5092040;28;20502;-69
2024/01/09 07:36:21;;;;;;;0.63;0.63;;;;;;;2.53;42.95;103728.31;5092314;28;20028;-67
2024/01/09 07:38:46;;;;;;;0.60;0.60;;;;;;;2.75;43.02;103743.66;5092380;28;20034;-66
2024/01/09 07:41:12;;;;;;;0.70;0.70;;;;;;;2.89;41.33;103732.91;5092699;28;20105;-68
2024/01/09 07:43:37;;;;;;;0.80;0.80;;;;;;;2.61;42.05;103739.22;5093192;28;20113;-67
2024/01/09 07:46:03;;;;;;;0.70;0.70;;;;;;;2.73;42.48;103739.38;5092342;28;20051;-67
2024/01/09 07:48:28;;;;;;;0.73;0.73;;;;;;;2.62;42.74;103737.44;5092250;28;20068;-71
2024/01/09 07:50:56;;;;;;;0.60;0.60;;;;;;;2.81;42.07;103737.06;5092232;28;20032;-73
2024/01/09 07:53:21;;;;;;;0.77;0.77;;;;;;;2.80;42.15;103746.81;5092314;28;20032;-71
2024/01/09 07:55:47;;;;;;;0.80;0.80;;;;;;;2.51;43.66;103755.88;5113535;28;20490;-73
2024/01/09 07:58:12;;;;;;;0.60;0.60;;;;;;;2.79;42.72;103739.78;5112764;28;20035;-72
2024/01/09 08:00:38;;;;;;;0.60;0.60;;;;;;;2.61;43.37;103744.53;5113047;28;20160;-72
2024/01/09 08:03:04;;;;;;;0.77;0.77;;;;;;;2.18;44.45;103748.31;5094739;28;20036;-72
2024/01/09 08:05:30;;;;;;;0.70;0.70;;;;;;;2.76;43.04;103744.47;5113782;28;20107;-72
2024/01/09 08:07:55;;;;;;;0.70;0.70;;;;;;;1.68;44.47;103737.47;5113770;28;20106;-72
2024/01/09 08:10:21;;;;;;;0.50;0.50;;;;;;;2.55;43.34;103744.97;5094874;28;20123;-72
2024/01/09 08:12:46;;;;;;;0.60;0.60;;;;;;;2.32;44.20;103750.09;5112987;28;20109;-73
2024/01/09 08:15:11;;;;;;;0.60;0.60;;;;;;;2.54;43.59;103743.25;5113239;28;20043;-71
2024/01/09 08:17:37;;;;;;;0.73;0.73;;;;;;;2.23;42.89;103746.25;5109300;28;20042;-72
2024/01/09 08:20:03;;;;;;;0.60;0.60;;;;;;;2.58;44.01;103754.53;5093770;28;20031;-72
2024/01/09 08:22:29;;;;;;;0.70;0.70;;;;;;;2.55;43.60;103752.09;5093044;28;20044;-72
2024/01/09 08:24:54;;;;;;;0.67;0.67;;;;;;;2.05;43.55;103755.38;5090881;28;20400;-71
2024/01/09 08:27:19;;;;;;;0.70;0.70;;;;;;;2.48;42.99;103758.72;5090764;28;20052;-73
2024/01/09 08:29:45;;;;;;;0.70;0.70;;;;;;;2.72;42.53;103750.94;5093277;28;20035;-71
2024/01/09 08:32:15;;;;;;;0.73;0.73;;;;;;;2.32;43.29;103753.59;5093267;28;20156;-71
2024/01/09 08:34:40;;;;;;;0.67;0.67;;;;;;;2.39;43.81;103749.59;5092283;28;20376;-72
2024/01/09 08:37:05;;;;;;;0.70;0.70;;;;;;;2.13;43.52;103758.38;5092838;28;20039;-71
2024/01/09 08:39:31;;;;;;;0.60;0.60;;;;;;;2.46;42.88;103753.53;5092497;28;20044;-72
2024/01/09 08:41:56;;;;;;;0.80;0.80;;;;;;;2.52;42.55;103753.13;5092917;28;20043;-72
2024/01/09 08:44:22;;;;;;;0.60;0.60;;;;;;;2.77;41.32;103749.69;5092985;28;20032;-72
2024/01/09 08:46:48;;;;;;;0.63;0.63;;;;;;;2.82;41.56;103758.19;5092751;28;20040;-73
2024/01/09 08:49:13;;;;;;;0.50;0.50;;;;;;;2.90;42.33;103762.97;5093237;28;20036;-72
2024/01/09 08:51:38;;;;;;;0.60;0.60;;;;;;;2.96;41.38;103751.94;5109305;28;20054;-72
2024/01/09 08:54:04;;;;;;;0.60;0.60;;;;;;;2.75;41.56;103759.56;5111582;28;20432;-72
2024/01/09 08:56:29;;;;;;;0.50;0.50;;;;;;;3.07;41.61;103757.38;5111927;28;20047;-72
2024/01/09 08:58:55;;;;;;;0.60;0.60;;;;;;;2.57;41.95;103753.69;5110808;28;20032;-72
2024/01/09 09:01:21;;;;;;;0.60;0.60;;;;;;;2.72;41.69;103750.94;5111870;27;20069;-74
2024/01/09 09:03:47;;;;;;;0.77;0.77;;;;;;;2.64;41.57;103751.47;5112445;28;20047;-72
2024/01/09 09:06:13;;;;;;;0.70;0.70;;;;;;;3.04;41.02;103746.97;5112376;28;20621;-73
2024/01/09 09:08:39;;;;;;;0.73;0.73;;;;;;;2.96;40.58;103741.31;5111302;28;20119;-72
2024/01/09 09:11:07;;;;;;;0.77;0.77;;;;;;;3.18;40.14;103746.88;5112229;28;20108;-72
2024/01/09 09:13:32;;;;;;;0.50;0.50;;;;;;;2.87;40.75;103755.25;5112282;28;20050;-73
2024/01/09 09:15:57;;;;;;;0.70;0.70;;;;;;;3.31;40.10;103742.41;5111629;28;20040;-72
2024/01/09 09:18:22;;;;;;;0.60;0.60;;;;;;;3.26;40.72;103749.84;5111917;28;20127;-72
2024/01/09 09:20:48;;;;;;;0.60;0.60;;;;;;;2.71;40.22;103744.81;5111352;28;20118;-72
2024/01/09 09:23:13;;;;;;;0.60;0.60;;;;;;;3.46;40.04;103744.81;5111293;28;20036;-71
2024/01/09 09:25:39;;;;;;;0.60;0.60;;;;;;;3.16;39.25;103740.81;5113031;28;20026;-72
2024/01/09 09:28:04;;;;;;;0.67;0.67;;;;;;;3.34;39.28;103740.38;5110728;28;20063;-68
2024/01/09 09:30:30;;;;;;;0.50;0.50;;;;;;;3.72;38.76;103742.13;5110729;28;20115;-68
2024/01/09 09:32:58;;;;;;;0.60;0.60;;;;;;;3.72;38.02;103752.75;5110943;28;20027;-68
2024/01/09 09:35:23;;;;;;;0.60;0.60;;;;;;;3.20;38.61;103742.31;5110721;28;20027;-67
2024/01/09 09:37:49;;;;;;;0.60;0.60;;;;;;;3.72;37.86;103747.44;5092561;28;20035;-68
2024/01/09 09:40:14;;;;;;;0.60;0.60;;;;;;;3.28;38.08;103739.97;5111117;28;20473;-67
2024/01/09 09:42:42;;;;;;;0.67;0.67;;;;;;;3.74;37.49;103750.84;5111139;28;20530;-67
2024/01/09 09:45:13;;;;;;;0.70;0.70;;;;;;;3.56;37.57;103747.69;5092996;28;20044;-67
2024/01/09 09:47:39;;;;;;;0.70;0.70;;;;;;;3.42;37.53;103756.63;5110961;28;20031;-67
2024/01/09 09:50:09;;;;;;;0.70;0.70;;;;;;;3.77;36.01;103745.31;5093435;28;20254;-68
2024/01/09 09:52:40;;;;;;;0.70;0.70;;;;;;;3.97;35.69;103753.53;5111037;28;20069;-68
2024/01/09 09:55:06;;;;;;;0.60;0.60;;;;;;;3.59;35.71;103750.13;5110505;28;20047;-67
2024/01/09 09:57:32;;;;;;;0.60;0.60;;;;;;;3.92;35.34;103746.88;5111459;28;20038;-67
2024/01/09 09:59:58;;;;;;;0.60;0.60;;;;;;;3.77;35.76;103745.31;5114682;28;20067;-64
2024/01/09 10:02:27;;;;;;;0.50;0.50;;;;;;;4.14;36.06;103739.03;5114548;28;20047;-67
2024/01/09 10:04:53;;;;;;;0.70;0.70;;;;;;;3.85;35.72;103743.81;5096305;28;20020;-67
2024/01/09 10:07:22;;;;;;;0.60;0.60;;;;;;;3.69;36.84;103740.56;5113981;28;20055;-68
2024/01/09 10:09:52;;;;;;;0.70;0.70;;;;;;;3.46;35.37;103741.31;5114728;28;20047;-67
2024/01/09 10:12:24;;;;;;;0.60;0.60;;;;;;;3.89;35.73;103734.63;5114570;28;20027;-67
2024/01/09 10:15:09;;;;;;;0.60;0.60;;;;;;;3.90;36.69;103728.38;5114855;28;20486;-68
2024/01/09 10:17:38;;;;;;;0.60;0.60;;;;;;;3.85;35.50;103734.97;5094248;28;20107;-67
2024/01/09 10:20:05;;;;;;;0.60;0.60;;;;;;;4.30;35.88;103727.13;5094747;28;20552;-67
2024/01/09 10:22:35;;;;;;;0.60;0.60;;;;;;;3.94;35.09;103715.69;5093949;28;20032;-68
2024/01/09 10:25:03;;;;;;;0.50;0.50;;;;;;;4.46;35.37;103718.88;5094092;28;20499;-68
2024/01/09 10:27:28;;;;;;;0.50;0.50;;;;;;;4.48;34.68;103716.94;5093982;28;20135;-68
2024/01/09 10:29:54;;;;;;;0.50;0.50;;;;;;;3.85;35.25;103711.91;5093958;28;20107;-68
2024/01/09 10:32:20;;;;;;;0.53;0.53;;;;;;;3.64;35.55;103717.91;5094157;28;20120;-67
2024/01/09 10:34:45;;;;;;;0.60;0.60;;;;;;;4.01;35.34;103720.44;5094337;28;20046;-68
2024/01/09 10:37:13;;;;;;;0.60;0.60;;;;;;;4.52;34.90;103709.56;5093606;28;20197;-68
2024/01/09 10:39:39;;;;;;;0.50;0.50;;;;;;;4.17;34.52;103707.72;5092283;28;20098;-67
2024/01/09 10:42:11;;;;;;;0.50;0.50;;;;;;;4.37;34.74;103707.09;5093610;28;20460;-69
2024/01/09 10:44:39;;;;;;;0.50;0.50;;;;;;;4.66;33.89;103710.19;5093357;28;20032;-68
2024/01/09 10:47:13;;;;;;;0.60;0.60;;;;;;;4.96;35.33;103709.69;5094145;28;20067;-67
2024/01/09 10:49:43;;;;;;;0.60;0.60;;;;;;;4.82;33.18;103697.41;5093796;28;20078;-69
2024/01/09 10:52:12;;;;;;;0.50;0.50;;;;;;;5.24;33.73;103698.56;5093431;28;20539;-69
2024/01/09 10:54:40;;;;;;;0.50;0.50;;;;;;;4.96;33.45;103693.69;5093522;28;20170;-68
2024/01/09 10:57:07;;;;;;;0.50;0.50;;;;;;;4.80;34.14;103693.16;5093342;28;20028;-68
2024/01/09 10:59:34;;;;;;;0.50;0.50;;;;;;;5.14;33.19;103690.44;5093572;28;20043;-68
2024/01/09 11:02:00;;;;;;;0.50;0.50;;;;;;;5.06;33.26;103698.19;5093811;28;20388;-67
2024/01/09 11:04:25;;;;;;;0.60;0.60;;;;;;;5.38;33.06;103693.81;5093248;28;20047;-68
2024/01/09 11:06:53;;;;;;;0.57;0.57;;;;;;;5.00;32.80;103687.16;5092972;28;20111;-68
2024/01/09 11:09:19;;;;;;;0.60;0.60;;;;;;;4.77;33.33;103688.09;5092095;28;20105;-68
2024/01/09 11:11:46;;;;;;;0.50;0.50;;;;;;;4.64;33.04;103682.00;5092918;28;20032;-68
2024/01/09 11:14:13;;;;;;;0.50;0.50;;;;;;;4.68;32.85;103684.31;5110684;28;20083;-67
2024/01/09 11:16:42;;;;;;;0.50;0.50;;;;;;;4.53;33.86;103681.97;5098811;28;20032;-67
2024/01/09 11:19:11;;;;;;;0.53;0.53;;;;;;;5.02;32.70;103677.22;5122519;27;20115;-68
2024/01/09 11:21:37;;;;;;;0.60;0.60;;;;;;;5.27;32.51;103683.19;5132036;27;20039;-67
2024/01/09 11:24:03;;;;;;;0.40;0.40;;;;;;;4.81;32.74;103678.91;5112758;28;20042;-67
2024/01/09 11:26:32;;;;;;;0.53;0.53;;;;;;;5.22;33.63;103680.03;5112917;27;20116;-68
2024/01/09 11:28:59;;;;;;;0.53;0.53;;;;;;;5.61;31.36;103676.00;5113478;28;20046;-70